sensor_id;sensor_type;location;lat;lon;timestamp;temperature;humidity
46037;DHT22;31769;49.304;8.428;2023-06-22T00:01:07;23.30;99.90
46037;DHT22;31769;49.304;8.428;2023-06-22T00:04:08;23.30;99.90
46037;DHT22;31769;49.304;8.428;2023-06-22T00:07:08;23.30;99.90
46037;DHT22;31769;49.304;8.428;2023-06-22T00:10:09;23.30;99.90
46037;DHT22;31769;49.304;8.428;2023-06-22T00:13:11;23.30;99.90
46037;DHT22;31769;49.304;8.428;2023-06-22T00:16:11;23.30;99.90
46037;DHT22;31769;49.304;8.428;2023-06-22T00:19:12;23.30;99.90
46037;DHT22;31769;49.304;8.428;2023-06-22T00:22:13;23.30;99.90
46037;DHT22;31769;49.304;8.428;2023-06-22T00:25:14;23.30;99.90
46037;DHT22;31769;49.304;8.428;2023-06-22T00:28:14;23.30;99.90
46037;DHT22;31769;49.304;8.428;2023-06-22T00:31:15;23.30;99.90
46037;DHT22;31769;49.304;8.428;2023-06-22T00:34:16;23.20;99.90
46037;DHT22;31769;49.304;8.428;2023-06-22T00:37:18;22.90;99.90
46037;DHT22;31769;49.304;8.428;2023-06-22T00:40:18;22.20;99.90
46037;DHT22;31769;49.304;8.428;2023-06-22T00:43:22;21.80;99.90
46037;DHT22;31769;49.304;8.428;2023-06-22T00:46:23;21.80;99.90
46037;DHT22;31769;49.304;8.428;2023-06-22T00:49:24;22.00;99.90
46037;DHT22;31769;49.304;8.428;2023-06-22T00:52:26;22.20;99.90
46037;DHT22;31769;49.304;8.428;2023-06-22T00:55:30;22.30;99.90
46037;DHT22;31769;49.304;8.428;2023-06-22T00:58:30;22.20;99.90
46037;DHT22;31769;49.304;8.428;2023-06-22T01:01:31;22.20;99.90
46037;DHT22;31769;49.304;8.428;2023-06-22T01:04:37;22.10;99.90
46037;DHT22;31769;49.304;8.428;2023-06-22T01:07:49;22.00;99.90
46037;DHT22;31769;49.304;8.428;2023-06-22T01:11:11;21.90;99.90
46037;DHT22;31769;49.304;8.428;2023-06-22T01:14:26;21.70;99.90
46037;DHT22;31769;49.304;8.428;2023-06-22T01:17:32;21.60;99.90
46037;DHT22;31769;49.304;8.428;2023-06-22T01:20:34;21.40;99.90
46037;DHT22;31769;49.304;8.428;2023-06-22T01:24:10;21.40;99.90
46037;DHT22;31769;49.304;8.428;2023-06-22T01:27:40;21.20;99.90
46037;DHT22;31769;49.304;8.428;2023-06-22T01:30:46;21.30;99.90
46037;DHT22;31769;49.304;8.428;2023-06-22T01:33:52;21.30;99.90
46037;DHT22;31769;49.304;8.428;2023-06-22T01:36:53;21.40;99.90
46037;DHT22;31769;49.304;8.428;2023-06-22T01:39:55;21.40;99.90
46037;DHT22;31769;49.304;8.428;2023-06-22T01:42:57;21.50;99.90
46037;DHT22;31769;49.304;8.428;2023-06-22T01:46:00;21.50;99.90
46037;DHT22;31769;49.304;8.428;2023-06-22T01:49:05;21.60;99.90
46037;DHT22;31769;49.304;8.428;2023-06-22T01:52:07;21.60;99.90
46037;DHT22;31769;49.304;8.428;2023-06-22T01:55:08;21.60;99.90
46037;DHT22;31769;49.304;8.428;2023-06-22T01:58:09;21.60;99.90
46037;DHT22;31769;49.304;8.428;2023-06-22T02:01:11;21.70;99.90
46037;DHT22;31769;49.304;8.428;2023-06-22T02:04:21;21.50;99.90
46037;DHT22;31769;49.304;8.428;2023-06-22T02:07:30;21.50;99.90
46037;DHT22;31769;49.304;8.428;2023-06-22T02:10:37;21.60;99.90
46037;DHT22;31769;49.304;8.428;2023-06-22T02:13:42;21.60;99.90
46037;DHT22;31769;49.304;8.428;2023-06-22T02:16:44;21.60;99.90
46037;DHT22;31769;49.304;8.428;2023-06-22T02:19:45;21.60;99.90
46037;DHT22;31769;49.304;8.428;2023-06-22T02:22:46;21.60;99.90
46037;DHT22;31769;49.304;8.428;2023-06-22T02:25:46;21.60;99.90
46037;DHT22;31769;49.304;8.428;2023-06-22T02:28:47;21.60;99.90
46037;DHT22;31769;49.304;8.428;2023-06-22T02:31:51;21.60;99.90
46037;DHT22;31769;49.304;8.428;2023-06-22T02:34:54;21.60;99.90
46037;DHT22;31769;49.304;8.428;2023-06-22T02:37:54;21.60;99.90
46037;DHT22;31769;49.304;8.428;2023-06-22T02:40:55;21.60;99.90
46037;DHT22;31769;49.304;8.428;2023-06-22T02:43:59;21.60;99.90
46037;DHT22;31769;49.304;8.428;2023-06-22T02:47:00;21.50;99.90
46037;DHT22;31769;49.304;8.428;2023-06-22T02:50:01;21.50;99.90
46037;DHT22;31769;49.304;8.428;2023-06-22T02:53:01;21.50;99.90
46037;DHT22;31769;49.304;8.428;2023-06-22T02:56:05;21.50;99.90
46037;DHT22;31769;49.304;8.428;2023-06-22T02:59:07;21.50;99.90
46037;DHT22;31769;49.304;8.428;2023-06-22T03:02:12;21.50;99.90
46037;DHT22;31769;49.304;8.428;2023-06-22T03:05:14;21.50;99.90
46037;DHT22;31769;49.304;8.428;2023-06-22T03:08:15;21.50;99.90
46037;DHT22;31769;49.304;8.428;2023-06-22T03:11:15;21.40;99.90
46037;DHT22;31769;49.304;8.428;2023-06-22T03:14:16;21.40;99.90
46037;DHT22;31769;49.304;8.428;2023-06-22T03:17:17;21.40;99.90
46037;DHT22;31769;49.304;8.428;2023-06-22T03:20:18;21.40;99.90
46037;DHT22;31769;49.304;8.428;2023-06-22T03:23:19;21.40;99.90
46037;DHT22;31769;49.304;8.428;2023-06-22T03:26:20;21.50;99.90
46037;DHT22;31769;49.304;8.428;2023-06-22T03:29:21;21.40;99.90
46037;DHT22;31769;49.304;8.428;2023-06-22T03:32:22;21.50;99.90
46037;DHT22;31769;49.304;8.428;2023-06-22T03:35:23;21.50;99.90
46037;DHT22;31769;49.304;8.428;2023-06-22T03:38:23;21.50;99.90
46037;DHT22;31769;49.304;8.428;2023-06-22T03:41:28;21.50;99.90
46037;DHT22;31769;49.304;8.428;2023-06-22T03:44:29;21.50;99.90
46037;DHT22;31769;49.304;8.428;2023-06-22T03:47:30;21.50;99.90
46037;DHT22;31769;49.304;8.428;2023-06-22T03:50:32;21.50;99.90
46037;DHT22;31769;49.304;8.428;2023-06-22T03:53:33;21.60;99.90
46037;DHT22;31769;49.304;8.428;2023-06-22T03:56:33;21.60;99.90
46037;DHT22;31769;49.304;8.428;2023-06-22T03:59:34;21.70;99.90
46037;DHT22;31769;49.304;8.428;2023-06-22T04:02:35;21.60;99.90
46037;DHT22;31769;49.304;8.428;2023-06-22T04:05:35;21.70;99.90
46037;DHT22;31769;49.304;8.428;2023-06-22T04:08:36;21.80;99.90
46037;DHT22;31769;49.304;8.428;2023-06-22T04:11:37;21.70;99.90
46037;DHT22;31769;49.304;8.428;2023-06-22T04:14:37;21.70;99.90
46037;DHT22;31769;49.304;8.428;2023-06-22T04:17:38;21.90;99.90
46037;DHT22;31769;49.304;8.428;2023-06-22T04:20:39;21.80;99.90
46037;DHT22;31769;49.304;8.428;2023-06-22T04:23:39;21.90;99.90
46037;DHT22;31769;49.304;8.428;2023-06-22T04:26:40;21.90;99.90
46037;DHT22;31769;49.304;8.428;2023-06-22T04:29:42;22.00;99.90
46037;DHT22;31769;49.304;8.428;2023-06-22T04:32:49;22.00;99.90
46037;DHT22;31769;49.304;8.428;2023-06-22T04:35:56;22.10;99.90
46037;DHT22;31769;49.304;8.428;2023-06-22T04:39:09;22.20;99.90
46037;DHT22;31769;49.304;8.428;2023-06-22T04:42:11;22.20;99.90
46037;DHT22;31769;49.304;8.428;2023-06-22T04:45:12;22.40;99.90
46037;DHT22;31769;49.304;8.428;2023-06-22T04:48:13;22.40;99.90
46037;DHT22;31769;49.304;8.428;2023-06-22T04:51:16;22.50;99.90
46037;DHT22;31769;49.304;8.428;2023-06-22T04:54:22;22.60;99.90
46037;DHT22;31769;49.304;8.428;2023-06-22T04:57:22;22.70;99.90
46037;DHT22;31769;49.304;8.428;2023-06-22T05:00:33;22.80;99.90
46037;DHT22;31769;49.304;8.428;2023-06-22T05:03:36;22.90;99.90
46037;DHT22;31769;49.304;8.428;2023-06-22T05:06:37;23.00;99.90
46037;DHT22;31769;49.304;8.428;2023-06-22T05:09:38;23.10;99.90
46037;DHT22;31769;49.304;8.428;2023-06-22T05:12:40;23.10;99.90
46037;DHT22;31769;49.304;8.428;2023-06-22T05:15:40;23.20;99.90
46037;DHT22;31769;49.304;8.428;2023-06-22T05:18:41;23.30;99.90
46037;DHT22;31769;49.304;8.428;2023-06-22T05:21:42;23.40;99.90
46037;DHT22;31769;49.304;8.428;2023-06-22T05:24:43;23.60;99.90
46037;DHT22;31769;49.304;8.428;2023-06-22T05:27:44;23.70;99.90
46037;DHT22;31769;49.304;8.428;2023-06-22T05:30:45;23.90;99.90
46037;DHT22;31769;49.304;8.428;2023-06-22T05:33:46;24.00;99.90
46037;DHT22;31769;49.304;8.428;2023-06-22T05:36:47;24.20;99.90
46037;DHT22;31769;49.304;8.428;2023-06-22T05:39:47;24.30;99.90
46037;DHT22;31769;49.304;8.428;2023-06-22T05:42:48;24.40;99.90
46037;DHT22;31769;49.304;8.428;2023-06-22T05:45:49;24.60;99.90
46037;DHT22;31769;49.304;8.428;2023-06-22T05:48:49;24.60;99.90
46037;DHT22;31769;49.304;8.428;2023-06-22T05:51:50;24.80;99.90
46037;DHT22;31769;49.304;8.428;2023-06-22T05:54:51;24.80;99.90
46037;DHT22;31769;49.304;8.428;2023-06-22T05:57:52;25.00;99.90
46037;DHT22;31769;49.304;8.428;2023-06-22T06:00:52;25.10;99.90
46037;DHT22;31769;49.304;8.428;2023-06-22T06:03:53;25.20;99.90
46037;DHT22;31769;49.304;8.428;2023-06-22T06:06:54;25.20;99.90
46037;DHT22;31769;49.304;8.428;2023-06-22T06:09:55;25.40;99.90
46037;DHT22;31769;49.304;8.428;2023-06-22T06:12:56;25.50;99.90
46037;DHT22;31769;49.304;8.428;2023-06-22T06:15:57;25.50;99.90
46037;DHT22;31769;49.304;8.428;2023-06-22T06:18:57;25.60;99.90
46037;DHT22;31769;49.304;8.428;2023-06-22T06:21:58;25.70;99.90
46037;DHT22;31769;49.304;8.428;2023-06-22T06:24:59;25.70;99.90
46037;DHT22;31769;49.304;8.428;2023-06-22T06:28:00;25.70;99.90
46037;DHT22;31769;49.304;8.428;2023-06-22T06:31:01;25.80;99.90
46037;DHT22;31769;49.304;8.428;2023-06-22T06:34:01;25.90;99.90
46037;DHT22;31769;49.304;8.428;2023-06-22T06:37:03;26.00;99.90
46037;DHT22;31769;49.304;8.428;2023-06-22T06:40:05;26.10;99.90
46037;DHT22;31769;49.304;8.428;2023-06-22T06:43:08;26.20;99.90
46037;DHT22;31769;49.304;8.428;2023-06-22T06:46:09;26.30;99.90
46037;DHT22;31769;49.304;8.428;2023-06-22T06:49:10;26.40;99.90
46037;DHT22;31769;49.304;8.428;2023-06-22T06:52:10;26.50;99.90
46037;DHT22;31769;49.304;8.428;2023-06-22T06:55:11;26.50;99.90
46037;DHT22;31769;49.304;8.428;2023-06-22T06:58:12;26.60;99.90
46037;DHT22;31769;49.304;8.428;2023-06-22T07:01:13;26.70;99.90
46037;DHT22;31769;49.304;8.428;2023-06-22T07:04:14;26.80;99.90
46037;DHT22;31769;49.304;8.428;2023-06-22T07:07:15;26.90;99.90
46037;DHT22;31769;49.304;8.428;2023-06-22T07:10:15;26.90;99.90
46037;DHT22;31769;49.304;8.428;2023-06-22T07:13:16;27.00;99.90
46037;DHT22;31769;49.304;8.428;2023-06-22T07:16:17;27.00;99.90
46037;DHT22;31769;49.304;8.428;2023-06-22T07:19:24;27.10;99.90
46037;DHT22;31769;49.304;8.428;2023-06-22T07:22:26;27.20;99.90
46037;DHT22;31769;49.304;8.428;2023-06-22T07:25:26;27.10;99.90
46037;DHT22;31769;49.304;8.428;2023-06-22T07:28:28;27.10;99.90
46037;DHT22;31769;49.304;8.428;2023-06-22T07:31:31;27.10;99.90
46037;DHT22;31769;49.304;8.428;2023-06-22T07:34:32;27.10;99.90
46037;DHT22;31769;49.304;8.428;2023-06-22T07:37:34;27.20;99.90
46037;DHT22;31769;49.304;8.428;2023-06-22T07:40:35;27.30;99.90
46037;DHT22;31769;49.304;8.428;2023-06-22T07:43:36;27.40;99.90
46037;DHT22;31769;49.304;8.428;2023-06-22T07:46:37;27.60;99.90
46037;DHT22;31769;49.304;8.428;2023-06-22T07:49:38;27.60;99.90
46037;DHT22;31769;49.304;8.428;2023-06-22T07:52:38;27.60;99.90
46037;DHT22;31769;49.304;8.428;2023-06-22T07:55:39;27.70;99.90
46037;DHT22;31769;49.304;8.428;2023-06-22T07:58:40;27.90;99.90
46037;DHT22;31769;49.304;8.428;2023-06-22T08:01:40;28.00;99.90
46037;DHT22;31769;49.304;8.428;2023-06-22T08:04:41;28.10;99.90
46037;DHT22;31769;49.304;8.428;2023-06-22T08:07:42;28.20;99.90
46037;DHT22;31769;49.304;8.428;2023-06-22T08:10:43;28.40;99.90
46037;DHT22;31769;49.304;8.428;2023-06-22T08:13:44;28.60;99.90
46037;DHT22;31769;49.304;8.428;2023-06-22T08:16:45;28.60;99.90
46037;DHT22;31769;49.304;8.428;2023-06-22T08:19:46;28.60;99.90
46037;DHT22;31769;49.304;8.428;2023-06-22T08:22:46;28.70;99.90
46037;DHT22;31769;49.304;8.428;2023-06-22T08:25:47;28.80;99.90
46037;DHT22;31769;49.304;8.428;2023-06-22T08:28:50;28.90;99.90
46037;DHT22;31769;49.304;8.428;2023-06-22T08:31:51;29.00;99.90
46037;DHT22;31769;49.304;8.428;2023-06-22T08:34:55;29.10;99.90
46037;DHT22;31769;49.304;8.428;2023-06-22T08:37:57;29.20;99.90
46037;DHT22;31769;49.304;8.428;2023-06-22T08:41:02;29.50;99.90
46037;DHT22;31769;49.304;8.428;2023-06-22T08:44:04;29.80;99.90
46037;DHT22;31769;49.304;8.428;2023-06-22T08:47:06;30.00;99.90
46037;DHT22;31769;49.304;8.428;2023-06-22T08:50:08;30.30;99.90
46037;DHT22;31769;49.304;8.428;2023-06-22T08:53:09;30.60;99.90
46037;DHT22;31769;49.304;8.428;2023-06-22T08:56:10;30.90;99.90
46037;DHT22;31769;49.304;8.428;2023-06-22T08:59:11;31.00;99.90
46037;DHT22;31769;49.304;8.428;2023-06-22T09:02:12;31.10;99.90
46037;DHT22;31769;49.304;8.428;2023-06-22T09:05:13;31.20;99.90
46037;DHT22;31769;49.304;8.428;2023-06-22T09:08:14;31.20;99.90
46037;DHT22;31769;49.304;8.428;2023-06-22T09:11:15;31.20;99.90
46037;DHT22;31769;49.304;8.428;2023-06-22T09:14:16;31.40;99.90
46037;DHT22;31769;49.304;8.428;2023-06-22T09:17:17;31.50;99.90
46037;DHT22;31769;49.304;8.428;2023-06-22T09:20:18;31.30;99.90
46037;DHT22;31769;49.304;8.428;2023-06-22T09:23:19;31.10;99.90
46037;DHT22;31769;49.304;8.428;2023-06-22T09:26:21;31.00;99.90
46037;DHT22;31769;49.304;8.428;2023-06-22T09:29:22;30.90;99.90
46037;DHT22;31769;49.304;8.428;2023-06-22T09:32:22;30.90;99.90
46037;DHT22;31769;49.304;8.428;2023-06-22T09:35:23;31.00;99.90
46037;DHT22;31769;49.304;8.428;2023-06-22T09:38:24;31.20;99.90
46037;DHT22;31769;49.304;8.428;2023-06-22T09:41:26;31.30;99.90
46037;DHT22;31769;49.304;8.428;2023-06-22T09:44:26;31.40;99.90
46037;DHT22;31769;49.304;8.428;2023-06-22T09:47:29;31.50;99.90
46037;DHT22;31769;49.304;8.428;2023-06-22T09:50:30;31.60;99.90
46037;DHT22;31769;49.304;8.428;2023-06-22T09:53:31;31.60;99.90
46037;DHT22;31769;49.304;8.428;2023-06-22T09:56:32;31.80;99.90
46037;DHT22;31769;49.304;8.428;2023-06-22T09:59:33;32.10;99.90
46037;DHT22;31769;49.304;8.428;2023-06-22T10:02:34;32.10;99.90
46037;DHT22;31769;49.304;8.428;2023-06-22T10:05:35;32.20;99.90
46037;DHT22;31769;49.304;8.428;2023-06-22T10:08:36;32.20;99.70
46037;DHT22;31769;49.304;8.428;2023-06-22T10:11:37;32.20;99.60
46037;DHT22;31769;49.304;8.428;2023-06-22T10:14:38;32.30;99.50
46037;DHT22;31769;49.304;8.428;2023-06-22T10:17:39;32.60;99.30
46037;DHT22;31769;49.304;8.428;2023-06-22T10:20:40;32.90;98.70
46037;DHT22;31769;49.304;8.428;2023-06-22T10:23:41;32.90;97.70
46037;DHT22;31769;49.304;8.428;2023-06-22T10:26:41;32.90;97.80
46037;DHT22;31769;49.304;8.428;2023-06-22T10:29:42;32.90;98.20
46037;DHT22;31769;49.304;8.428;2023-06-22T10:32:43;32.80;98.40
46037;DHT22;31769;49.304;8.428;2023-06-22T10:35:44;32.70;98.40
46037;DHT22;31769;49.304;8.428;2023-06-22T10:38:45;32.90;98.20
46037;DHT22;31769;49.304;8.428;2023-06-22T10:41:47;33.00;98.10
46037;DHT22;31769;49.304;8.428;2023-06-22T10:44:48;33.10;97.70
46037;DHT22;31769;49.304;8.428;2023-06-22T10:47:49;33.30;97.00
46037;DHT22;31769;49.304;8.428;2023-06-22T10:50:49;33.50;96.40
46037;DHT22;31769;49.304;8.428;2023-06-22T10:53:51;33.30;96.20
46037;DHT22;31769;49.304;8.428;2023-06-22T10:56:52;33.30;96.10
46037;DHT22;31769;49.304;8.428;2023-06-22T10:59:53;33.30;96.50
46037;DHT22;31769;49.304;8.428;2023-06-22T11:02:53;34.00;95.90
46037;DHT22;31769;49.304;8.428;2023-06-22T11:05:54;34.30;94.90
46037;DHT22;31769;49.304;8.428;2023-06-22T11:08:55;34.40;94.40
46037;DHT22;31769;49.304;8.428;2023-06-22T11:11:56;34.50;94.20
46037;DHT22;31769;49.304;8.428;2023-06-22T11:14:59;34.70;93.90
46037;DHT22;31769;49.304;8.428;2023-06-22T11:18:00;34.40;93.30
46037;DHT22;31769;49.304;8.428;2023-06-22T11:21:00;34.20;93.50
46037;DHT22;31769;49.304;8.428;2023-06-22T11:24:02;34.20;93.60
46037;DHT22;31769;49.304;8.428;2023-06-22T11:27:03;34.30;92.90
46037;DHT22;31769;49.304;8.428;2023-06-22T11:30:04;34.00;93.30
46037;DHT22;31769;49.304;8.428;2023-06-22T11:33:05;33.90;93.70
46037;DHT22;31769;49.304;8.428;2023-06-22T11:36:06;34.30;93.40
46037;DHT22;31769;49.304;8.428;2023-06-22T11:39:08;33.90;93.50
46037;DHT22;31769;49.304;8.428;2023-06-22T11:42:10;33.60;94.10
46037;DHT22;31769;49.304;8.428;2023-06-22T11:45:11;33.40;93.80
46037;DHT22;31769;49.304;8.428;2023-06-22T11:48:12;33.60;93.70
46037;DHT22;31769;49.304;8.428;2023-06-22T11:51:13;34.20;93.00
46037;DHT22;31769;49.304;8.428;2023-06-22T11:54:14;34.50;92.40
46037;DHT22;31769;49.304;8.428;2023-06-22T11:57:15;34.70;92.00
46037;DHT22;31769;49.304;8.428;2023-06-22T12:00:16;34.80;91.70
46037;DHT22;31769;49.304;8.428;2023-06-22T12:03:19;35.10;91.30
46037;DHT22;31769;49.304;8.428;2023-06-22T12:06:19;35.40;90.90
46037;DHT22;31769;49.304;8.428;2023-06-22T12:09:20;35.90;90.40
46037;DHT22;31769;49.304;8.428;2023-06-22T12:12:21;36.40;89.80
46037;DHT22;31769;49.304;8.428;2023-06-22T12:15:22;37.00;87.30
46037;DHT22;31769;49.304;8.428;2023-06-22T12:18:23;37.00;86.70
46037;DHT22;31769;49.304;8.428;2023-06-22T12:21:23;37.30;86.10
46037;DHT22;31769;49.304;8.428;2023-06-22T12:24:24;37.20;85.00
46037;DHT22;31769;49.304;8.428;2023-06-22T12:27:25;37.70;84.50
46037;DHT22;31769;49.304;8.428;2023-06-22T12:30:26;38.30;82.50
46037;DHT22;31769;49.304;8.428;2023-06-22T12:33:26;38.80;79.80
46037;DHT22;31769;49.304;8.428;2023-06-22T12:36:27;38.00;80.10
46037;DHT22;31769;49.304;8.428;2023-06-22T12:39:28;36.80;81.80
46037;DHT22;31769;49.304;8.428;2023-06-22T12:42:28;36.10;81.90
46037;DHT22;31769;49.304;8.428;2023-06-22T12:45:29;35.50;83.00
46037;DHT22;31769;49.304;8.428;2023-06-22T12:48:33;35.40;83.40
46037;DHT22;31769;49.304;8.428;2023-06-22T12:51:40;36.40;79.60
46037;DHT22;31769;49.304;8.428;2023-06-22T12:54:41;37.10;78.90
46037;DHT22;31769;49.304;8.428;2023-06-22T12:57:42;36.90;79.00
46037;DHT22;31769;49.304;8.428;2023-06-22T13:00:43;36.40;79.60
46037;DHT22;31769;49.304;8.428;2023-06-22T13:03:43;36.20;81.80
46037;DHT22;31769;49.304;8.428;2023-06-22T13:06:45;36.90;80.10
46037;DHT22;31769;49.304;8.428;2023-06-22T13:09:47;37.30;77.80
46037;DHT22;31769;49.304;8.428;2023-06-22T13:12:51;37.00;78.20
46037;DHT22;31769;49.304;8.428;2023-06-22T13:15:55;37.90;76.70
46037;DHT22;31769;49.304;8.428;2023-06-22T13:18:55;37.50;76.50
46037;DHT22;31769;49.304;8.428;2023-06-22T13:21:56;36.90;78.10
46037;DHT22;31769;49.304;8.428;2023-06-22T13:24:58;37.10;77.40
46037;DHT22;31769;49.304;8.428;2023-06-22T13:27:59;37.80;75.60
46037;DHT22;31769;49.304;8.428;2023-06-22T13:30:59;37.30;76.30
46037;DHT22;31769;49.304;8.428;2023-06-22T13:34:00;36.60;78.20
46037;DHT22;31769;49.304;8.428;2023-06-22T13:37:01;37.40;76.70
46037;DHT22;31769;49.304;8.428;2023-06-22T13:40:02;38.30;75.60
46037;DHT22;31769;49.304;8.428;2023-06-22T13:43:06;40.80;71.40
46037;DHT22;31769;49.304;8.428;2023-06-22T13:46:06;41.90;67.20
46037;DHT22;31769;49.304;8.428;2023-06-22T13:49:07;40.60;67.90
46037;DHT22;31769;49.304;8.428;2023-06-22T13:52:08;38.00;71.90
46037;DHT22;31769;49.304;8.428;2023-06-22T13:55:10;36.00;76.70
46037;DHT22;31769;49.304;8.428;2023-06-22T13:58:11;34.20;81.40
46037;DHT22;31769;49.304;8.428;2023-06-22T14:01:12;32.90;85.60
46037;DHT22;31769;49.304;8.428;2023-06-22T14:04:13;32.10;88.90
46037;DHT22;31769;49.304;8.428;2023-06-22T14:07:13;31.70;90.20
46037;DHT22;31769;49.304;8.428;2023-06-22T14:10:18;31.30;91.40
46037;DHT22;31769;49.304;8.428;2023-06-22T14:13:18;31.10;92.80
46037;DHT22;31769;49.304;8.428;2023-06-22T14:16:19;30.90;93.60
46037;DHT22;31769;49.304;8.428;2023-06-22T14:19:20;30.90;94.40
46037;DHT22;31769;49.304;8.428;2023-06-22T14:22:22;30.70;94.80
46037;DHT22;31769;49.304;8.428;2023-06-22T14:25:23;30.50;95.30
46037;DHT22;31769;49.304;8.428;2023-06-22T14:28:23;30.20;96.30
46037;DHT22;31769;49.304;8.428;2023-06-22T14:31:24;30.00;97.00
46037;DHT22;31769;49.304;8.428;2023-06-22T14:34:25;29.80;98.00
46037;DHT22;31769;49.304;8.428;2023-06-22T14:37:26;29.70;99.00
46037;DHT22;31769;49.304;8.428;2023-06-22T14:40:27;29.50;99.90
46037;DHT22;31769;49.304;8.428;2023-06-22T14:43:28;29.40;99.90
46037;DHT22;31769;49.304;8.428;2023-06-22T14:46:29;29.30;99.90
46037;DHT22;31769;49.304;8.428;2023-06-22T14:49:29;29.40;99.90
46037;DHT22;31769;49.304;8.428;2023-06-22T14:52:30;29.50;99.90
46037;DHT22;31769;49.304;8.428;2023-06-22T14:55:31;29.60;99.90
46037;DHT22;31769;49.304;8.428;2023-06-22T14:58:33;29.80;99.90
46037;DHT22;31769;49.304;8.428;2023-06-22T15:01:34;30.30;99.90
46037;DHT22;31769;49.304;8.428;2023-06-22T15:04:35;30.70;99.90
46037;DHT22;31769;49.304;8.428;2023-06-22T15:07:36;31.40;99.90
46037;DHT22;31769;49.304;8.428;2023-06-22T15:10:37;32.70;98.20
46037;DHT22;31769;49.304;8.428;2023-06-22T15:13:42;34.50;94.90
46037;DHT22;31769;49.304;8.428;2023-06-22T15:16:43;35.60;92.90
46037;DHT22;31769;49.304;8.428;2023-06-22T15:19:44;36.50;90.20
46037;DHT22;31769;49.304;8.428;2023-06-22T15:22:45;37.10;88.50
46037;DHT22;31769;49.304;8.428;2023-06-22T15:25:46;37.60;85.90
46037;DHT22;31769;49.304;8.428;2023-06-22T15:28:47;37.80;82.10
46037;DHT22;31769;49.304;8.428;2023-06-22T15:31:48;38.10;81.80
46037;DHT22;31769;49.304;8.428;2023-06-22T15:34:49;39.60;77.70
46037;DHT22;31769;49.304;8.428;2023-06-22T15:37:54;41.60;73.50
46037;DHT22;31769;49.304;8.428;2023-06-22T15:40:55;42.70;68.90
46037;DHT22;31769;49.304;8.428;2023-06-22T15:43:56;43.00;66.30
46037;DHT22;31769;49.304;8.428;2023-06-22T15:46:57;42.70;63.50
46037;DHT22;31769;49.304;8.428;2023-06-22T15:49:58;42.00;65.00
46037;DHT22;31769;49.304;8.428;2023-06-22T15:52:58;42.20;63.30
46037;DHT22;31769;49.304;8.428;2023-06-22T15:55:59;42.20;62.80
46037;DHT22;31769;49.304;8.428;2023-06-22T15:59:00;41.80;63.90
46037;DHT22;31769;49.304;8.428;2023-06-22T16:02:01;41.10;62.20
46037;DHT22;31769;49.304;8.428;2023-06-22T16:05:02;39.80;65.00
46037;DHT22;31769;49.304;8.428;2023-06-22T16:08:09;38.80;65.50
46037;DHT22;31769;49.304;8.428;2023-06-22T16:11:12;37.00;69.50
46037;DHT22;31769;49.304;8.428;2023-06-22T16:14:12;34.70;75.10
46037;DHT22;31769;49.304;8.428;2023-06-22T16:17:13;32.70;81.80
46037;DHT22;31769;49.304;8.428;2023-06-22T16:20:14;31.50;87.90
46037;DHT22;31769;49.304;8.428;2023-06-22T16:23:18;30.80;91.00
46037;DHT22;31769;49.304;8.428;2023-06-22T16:26:19;30.30;92.60
46037;DHT22;31769;49.304;8.428;2023-06-22T16:29:19;30.00;93.90
46037;DHT22;31769;49.304;8.428;2023-06-22T16:32:20;29.90;94.60
46037;DHT22;31769;49.304;8.428;2023-06-22T16:35:21;29.90;95.40
46037;DHT22;31769;49.304;8.428;2023-06-22T16:38:22;29.90;95.60
46037;DHT22;31769;49.304;8.428;2023-06-22T16:41:23;30.60;95.00
46037;DHT22;31769;49.304;8.428;2023-06-22T16:44:26;33.50;90.10
46037;DHT22;31769;49.304;8.428;2023-06-22T16:47:26;36.80;81.70
46037;DHT22;31769;49.304;8.428;2023-06-22T16:50:28;39.50;73.40
46037;DHT22;31769;49.304;8.428;2023-06-22T16:53:29;40.60;68.60
46037;DHT22;31769;49.304;8.428;2023-06-22T16:56:30;40.90;66.90
46037;DHT22;31769;49.304;8.428;2023-06-22T16:59:31;40.00;67.60
46037;DHT22;31769;49.304;8.428;2023-06-22T17:02:33;38.00;71.50
46037;DHT22;31769;49.304;8.428;2023-06-22T17:05:35;35.80;76.80
46037;DHT22;31769;49.304;8.428;2023-06-22T17:08:37;33.80;80.00
46037;DHT22;31769;49.304;8.428;2023-06-22T17:11:39;32.70;83.70
46037;DHT22;31769;49.304;8.428;2023-06-22T17:14:41;33.50;82.10
46037;DHT22;31769;49.304;8.428;2023-06-22T17:17:46;33.50;81.60
46037;DHT22;31769;49.304;8.428;2023-06-22T17:20:47;32.50;79.60
46037;DHT22;31769;49.304;8.428;2023-06-22T17:23:48;31.50;80.60
46037;DHT22;31769;49.304;8.428;2023-06-22T17:26:54;31.10;87.20
46037;DHT22;31769;49.304;8.428;2023-06-22T17:30:09;30.70;87.30
46037;DHT22;31769;49.304;8.428;2023-06-22T17:33:14;30.40;88.80
46037;DHT22;31769;49.304;8.428;2023-06-22T17:36:15;30.20;81.10
46037;DHT22;31769;49.304;8.428;2023-06-22T17:39:21;30.10;77.70
46037;DHT22;31769;49.304;8.428;2023-06-22T17:42:22;29.90;76.50
46037;DHT22;31769;49.304;8.428;2023-06-22T17:45:23;29.80;77.70
46037;DHT22;31769;49.304;8.428;2023-06-22T17:48:24;29.70;77.10
46037;DHT22;31769;49.304;8.428;2023-06-22T17:51:25;29.70;76.80
46037;DHT22;31769;49.304;8.428;2023-06-22T17:54:30;29.80;75.50
46037;DHT22;31769;49.304;8.428;2023-06-22T17:57:38;29.80;74.80
46037;DHT22;31769;49.304;8.428;2023-06-22T18:00:40;29.70;75.30
46037;DHT22;31769;49.304;8.428;2023-06-22T18:03:44;29.50;76.20
46037;DHT22;31769;49.304;8.428;2023-06-22T18:06:46;29.40;76.80
46037;DHT22;31769;49.304;8.428;2023-06-22T18:09:47;29.30;77.70
46037;DHT22;31769;49.304;8.428;2023-06-22T18:12:48;29.10;78.30
46037;DHT22;31769;49.304;8.428;2023-06-22T18:15:49;29.10;79.00
46037;DHT22;31769;49.304;8.428;2023-06-22T18:18:52;29.00;79.50
46037;DHT22;31769;49.304;8.428;2023-06-22T18:21:53;29.00;80.10
46037;DHT22;31769;49.304;8.428;2023-06-22T18:24:55;29.00;80.80
46037;DHT22;31769;49.304;8.428;2023-06-22T18:27:56;28.90;81.20
46037;DHT22;31769;49.304;8.428;2023-06-22T18:30:57;28.80;82.10
46037;DHT22;31769;49.304;8.428;2023-06-22T18:33:58;28.70;82.80
46037;DHT22;31769;49.304;8.428;2023-06-22T18:37:00;28.50;83.50
46037;DHT22;31769;49.304;8.428;2023-06-22T18:40:04;28.30;84.70
46037;DHT22;31769;49.304;8.428;2023-06-22T18:43:08;28.20;85.60
46037;DHT22;31769;49.304;8.428;2023-06-22T18:46:33;28.10;86.10
46037;DHT22;31769;49.304;8.428;2023-06-22T18:52:41;28.00;87.90
46037;DHT22;31769;49.304;8.428;2023-06-22T18:55:43;28.00;88.50
46037;DHT22;31769;49.304;8.428;2023-06-22T18:58:55;27.90;89.50
46037;DHT22;31769;49.304;8.428;2023-06-22T19:02:00;27.90;89.30
46037;DHT22;31769;49.304;8.428;2023-06-22T19:08:14;27.80;90.50
46037;DHT22;31769;49.304;8.428;2023-06-22T19:11:15;27.60;91.20
46037;DHT22;31769;49.304;8.428;2023-06-22T19:14:19;27.40;91.70